createdAt,value
2019-06-20T00:11:04.807Z,6.40
2019-06-20T00:23:04.803Z,8.18
2019-06-20T00:35:04.794Z,7.37
2019-06-20T00:47:05.263Z,7.20
2019-06-20T00:59:04.746Z,8.38
2019-06-20T01:11:04.829Z,9.73
2019-06-20T01:23:04.826Z,7.33
2019-06-20T01:35:04.840Z,9.65
2019-06-20T01:47:04.835Z,9.08
2019-06-20T01:59:04.818Z,7.33
2019-06-20T02:11:04.793Z,9.33
2019-06-20T02:23:04.808Z,7.65
2019-06-20T02:35:04.791Z,7.85
2019-06-20T02:47:04.829Z,7.55
2019-06-20T02:59:04.774Z,8.33
2019-06-20T03:11:04.767Z,12.40
2019-06-20T03:23:04.806Z,7.28
2019-06-20T03:35:04.775Z,7.70
2019-06-20T03:47:04.838Z,11.35
2019-06-20T03:59:04.779Z,10.90
2019-06-20T04:11:04.787Z,10.78
2019-06-20T04:23:04.784Z,12.58
2019-06-20T04:35:05.284Z,11.57
2019-06-20T04:47:04.782Z,13.43
2019-06-20T04:59:04.817Z,13.10
2019-06-20T05:11:04.792Z,12.40
2019-06-20T05:23:04.772Z,10.68
2019-06-20T05:35:04.779Z,9.33
2019-06-20T05:47:12.227Z,10.38
2019-06-20T05:59:04.866Z,5.58
2019-06-20T06:11:04.817Z,6.17
2019-06-20T06:23:04.778Z,7.33
2019-06-20T06:35:04.750Z,9.38
2019-06-20T06:47:04.831Z,8.53
2019-06-20T06:59:04.813Z,6.65
2019-06-20T07:11:04.866Z,5.03
2019-06-20T07:23:04.811Z,5.17
2019-06-20T07:35:04.775Z,4.92
2019-06-20T07:47:17.148Z,5.33
2019-06-20T07:59:04.874Z,5.05
2019-06-20T08:11:04.793Z,5.22
2019-06-20T08:23:04.785Z,4.17
2019-06-20T08:35:04.722Z,3.85
2019-06-20T08:47:05.866Z,3.30
2019-06-20T08:59:04.941Z,5.10
2019-06-20T09:11:04.806Z,4.08
2019-06-20T09:23:04.781Z,4.92
2019-06-20T09:35:04.768Z,3.77
2019-06-20T09:47:04.791Z,5.78
2019-06-20T09:59:04.768Z,4.05
2019-06-20T10:11:04.766Z,3.60
2019-06-20T10:23:04.773Z,3.60
2019-06-20T15:23:04.828Z,3.60
2019-06-20T15:35:04.801Z,4.47
2019-06-20T15:47:04.779Z,5.90
2019-06-20T15:59:04.798Z,7.97
2019-06-20T16:11:04.823Z,13.88
2019-06-20T16:23:04.785Z,14.83
2019-06-20T16:35:04.806Z,12.05
2019-06-20T16:47:04.787Z,17.02
2019-06-20T16:59:04.881Z,14.78
2019-06-20T17:11:04.786Z,6.97
2019-06-20T17:23:04.787Z,8.05
2019-06-20T17:35:04.775Z,9.73
2019-06-20T17:47:04.780Z,12.13
2019-06-20T17:59:04.839Z,10.48
2019-06-20T18:11:04.881Z,15.15
2019-06-20T18:23:04.808Z,13.70
2019-06-20T18:35:04.787Z,12.28
2019-06-20T18:47:05.266Z,13.28
2019-06-20T18:59:04.784Z,14.35
2019-06-20T19:11:04.777Z,15.38
2019-06-20T19:23:04.807Z,17.10
2019-06-20T19:35:04.884Z,17.57
2019-06-20T19:47:04.885Z,13.85
2019-06-20T19:59:04.903Z,15.35
2019-06-20T20:11:04.997Z,15.32
2019-06-20T20:23:04.962Z,15.88
2019-06-20T20:35:04.762Z,15.70
2019-06-20T20:47:04.802Z,16.45
2019-06-20T20:59:04.827Z,18.55
2019-06-20T21:11:04.800Z,26.00
2019-06-20T21:23:04.825Z,26.65
2019-06-20T21:35:04.789Z,24.12
2019-06-20T21:47:04.783Z,26.27
2019-06-20T21:59:04.859Z,34.90
2019-06-20T22:11:04.771Z,43.52
2019-06-20T22:23:04.800Z,41.45
2019-06-20T22:35:04.781Z,48.70
2019-06-20T22:47:04.753Z,34.85
2019-06-20T22:59:05.004Z,41.15
2019-06-20T23:11:04.804Z,45.80
2019-06-20T23:23:04.788Z,42.67
2019-06-20T23:35:04.782Z,44.45
2019-06-20T23:47:04.803Z,43.68
2019-06-20T23:59:04.825Z,37.53
